M I D A S
Marine Information and Data Acquisition System
Tripno 886 of the Zeeleeuw from 2005-04-28 06:45:36 to 2005-04-28 15:38:20
Back to CruiseResearch ActivitiesStationsMapUnderway DataData graphs

EquipmentUnitsComment
TimeDGPSUTC
LatitudeDGPSDM.mWGS84
LongitudeDGPSDM.mWGS84
HeadingGyrodeg 
SOGDGPSknotsSpeed over ground
COGDGPSdegCourse over ground
DepthEcho soundermeters200 kHz
Missing or incorrect values are displayed as -999
Navigation data collected by the RV Zeeleeuw from 2005-04-28 06:44:08 to 2005-04-28 15:48:48
Time Latitude Longitude Heading SOG COG Depth
2005-04-28 06:45:13 51°13.597 2°56.108 123.6 0.1 168 6.7
2005-04-28 06:46:13 51°13.597 2°56.104 108.5 0.3 286 6.7
2005-04-28 06:47:14 51°13.61 2°56.052 112.6 2.8 296 -999
2005-04-28 06:48:14 51°13.635 2°55.966 120.5 4.3 296 -999
2005-04-28 06:49:14 51°13.677 2°55.858 127.4 5 305 -999
2005-04-28 06:50:14 51°13.719 2°55.755 119.4 4.4 301 -999
2005-04-28 06:51:13 51°13.732 2°55.737 70.6 0.6 288 11.1
2005-04-28 06:52:14 51°13.728 2°55.708 41.2 0.8 -999 -999
2005-04-28 06:53:14 51°13.774 2°55.686 337.2 4 335 -999
2005-04-28 06:54:13 51°13.861 2°55.619 338.4 7 335 9.1
2005-04-28 06:55:13 51°13.978 2°55.531 339.1 7.9 334 9.6
2005-04-28 06:56:13 51°14.103 2°55.438 338.4 8.8 335 9.1
2005-04-28 06:57:13 51°14.249 2°55.287 325.1 10.7 323 10.8
2005-04-28 06:58:12 51°14.361 2°55.052 306.1 11.7 304 9.6
2005-04-28 06:59:13 51°14.523 2°54.825 332.2 13.5 323 9.5
2005-04-28 07:00:13 51°14.728 2°54.71 355.6 13.1 347 8.9
2005-04-28 07:01:13 51°14.946 2°54.649 1.7 13.2 352 8.4
2005-04-28 07:02:13 51°15.158 2°54.576 354.7 12.9 347 -999
2005-04-28 07:03:13 51°15.374 2°54.51 357.3 13.4 347 8.2
2005-04-28 07:04:13 51°15.588 2°54.399 353.4 13.6 345 8.9
2005-04-28 07:05:13 51°15.806 2°54.285 350.9 13.7 342 9.8
2005-04-28 07:06:13 51°15.995 2°54.191 354.5 9.4 348 10.6
2005-04-28 07:07:13 51°16.112 2°54.214 26.9 6.4 16 10.7
2005-04-28 07:08:13 51°16.204 2°54.255 27.1 5.8 16 10.8
2005-04-28 07:09:12 51°16.242 2°54.276 62.9 0.7 283 10.8
2005-04-28 07:10:13 51°16.244 2°54.256 71.6 0.7 278 10.8
2005-04-28 07:11:13 51°16.246 2°54.237 76.1 0.7 284 10.8
2005-04-28 07:12:12 51°16.247 2°54.219 78.5 0.7 274 10.9
2005-04-28 07:13:13 51°16.249 2°54.199 78.3 0.7 277 10.8
2005-04-28 07:14:13 51°16.252 2°54.18 77.6 0.8 280 10.9
2005-04-28 07:15:13 51°16.254 2°54.161 76.1 0.8 273 10.8
2005-04-28 07:16:13 51°16.256 2°54.14 74.8 0.8 284 10.8
2005-04-28 07:17:13 51°16.259 2°54.12 73 0.8 290 10.8
2005-04-28 07:18:13 51°16.261 2°54.099 71.1 0.8 291 10.8
2005-04-28 07:19:12 51°16.264 2°54.079 71.4 0.8 281 10.8
2005-04-28 07:20:13 51°16.267 2°54.058 70.8 0.8 279 10.8
2005-04-28 07:21:13 51°16.27 2°54.038 70 0.8 280 10.8
2005-04-28 07:22:13 51°16.272 2°54.017 70.9 0.8 279 10.8
2005-04-28 07:23:13 51°16.275 2°54.001 71.7 0.4 329 10.8
2005-04-28 07:24:13 51°16.329 2°54.023 13.3 4.7 17 10.8
2005-04-28 07:25:13 51°16.451 2°53.875 325.3 12.1 315 10.8
2005-04-28 07:26:13 51°16.606 2°53.609 321.3 14 313 10.9
2005-04-28 07:27:13 51°16.767 2°53.337 321.2 14.1 313 10.3
2005-04-28 07:28:13 51°16.923 2°53.076 323.1 13 315 7.5
2005-04-28 07:29:12 51°17.077 2°52.821 315.6 13.9 308 8.8
2005-04-28 07:30:13 51°17.236 2°52.537 321.5 14.1 313 8.8
2005-04-28 07:31:13 51°17.405 2°52.28 327.3 14.1 320 9.4
2005-04-28 07:32:13 51°17.58 2°52.027 325.8 14.1 318 9.3
2005-04-28 07:33:13 51°17.754 2°51.781 326.1 13.9 318 9.1
2005-04-28 07:34:13 51°17.927 2°51.533 327 14 318 9.4
2005-04-28 07:35:13 51°18.102 2°51.28 327.1 14.3 318 10.7
2005-04-28 07:36:13 51°18.275 2°51.057 330.8 10.9 324 12
2005-04-28 07:37:13 51°18.405 2°51.015 13.8 7 2 12.6
2005-04-28 07:38:13 51°18.472 2°51.042 54.9 1.6 24 12.9
2005-04-28 07:39:13 51°18.48 2°51.021 73.6 0.8 292 13
2005-04-28 07:40:13 51°18.485 2°51 67.3 0.9 298 13
2005-04-28 07:41:12 51°18.491 2°50.979 70.9 0.9 300 12.9
2005-04-28 07:42:13 51°18.497 2°50.959 78.5 0.8 297 13
2005-04-28 07:43:13 51°18.503 2°50.94 85.2 0.8 297 13
2005-04-28 07:44:13 51°18.509 2°50.922 91.8 0.7 298 13.1
2005-04-28 07:45:13 51°18.514 2°50.908 94.7 0.5 300 13.1
2005-04-28 07:46:13 51°18.52 2°50.902 87.1 0.3 343 13
2005-04-28 07:47:12 51°18.526 2°50.902 79.1 0.5 9 13.1
2005-04-28 07:48:13 51°18.535 2°50.91 81.9 0.6 38 13.1
2005-04-28 07:49:13 51°18.542 2°50.921 84.6 0.6 46 13
2005-04-28 07:50:13 51°18.548 2°50.931 87.8 0.5 43 13.1
2005-04-28 07:51:13 51°18.553 2°50.94 90.9 0.4 47 13.1
2005-04-28 07:52:13 51°18.558 2°50.949 92.7 0.3 43 13
2005-04-28 07:53:13 51°18.561 2°50.955 93.5 0.2 23 13
2005-04-28 07:54:12 51°18.565 2°50.953 94.6 0.2 304 13
2005-04-28 07:55:13 51°18.568 2°50.944 95.4 0.4 288 13
2005-04-28 07:56:13 51°18.571 2°50.931 96.3 0.6 283 13.1
2005-04-28 07:57:13 51°18.57 2°50.915 97 0.6 275 13.1
2005-04-28 07:58:13 51°18.574 2°50.894 97.2 0.8 278 13.1
2005-04-28 07:59:13 51°18.58 2°50.937 85.1 4.9 79 13
2005-04-28 08:00:13 51°18.633 2°51.201 76.8 11.4 72 12.8
2005-04-28 08:01:12 51°18.695 2°51.51 78 12.4 73 12.6
2005-04-28 08:02:12 51°18.765 2°51.819 75.3 12.3 70 12.2
2005-04-28 08:03:12 51°18.835 2°52.127 75 12.4 70 11.8
2005-04-28 08:04:13 51°18.904 2°52.44 75.4 12.3 70 11.4
2005-04-28 08:05:13 51°18.972 2°52.745 75.4 12.3 71 11
2005-04-28 08:06:13 51°19.039 2°53.056 76.3 12.3 71 10.8
2005-04-28 08:07:12 51°19.105 2°53.361 76.1 12.2 70 10.8
2005-04-28 08:08:13 51°19.167 2°53.676 76 12.2 72 10.7
2005-04-28 08:09:13 51°19.228 2°53.983 76.1 12 72 10.7
2005-04-28 08:10:13 51°19.289 2°54.291 76.4 12.1 73 10.6
2005-04-28 08:11:13 51°19.354 2°54.597 73 12.3 69 10.5
2005-04-28 08:12:13 51°19.432 2°54.902 71.6 12.4 67 10.5
2005-04-28 08:13:13 51°19.513 2°55.205 70.8 12.4 66 10.4
2005-04-28 08:14:13 51°19.582 2°55.515 75.4 12.3 72 10.2
2005-04-28 08:15:13 51°19.649 2°55.823 74.7 12.4 71 10.2
2005-04-28 08:16:13 51°19.716 2°56.138 74.8 12.6 71 10.1
2005-04-28 08:17:13 51°19.788 2°56.448 75.3 12.4 70 10.1
2005-04-28 08:18:13 51°19.859 2°56.752 75.5 12.2 69 9.9
2005-04-28 08:19:13 51°19.926 2°57.057 76.4 12.1 71 9.8
2005-04-28 08:20:12 51°19.994 2°57.35 75.6 11.8 70 9.7
2005-04-28 08:21:12 51°20.061 2°57.646 76.1 12 70 9.6
2005-04-28 08:22:12 51°20.127 2°57.944 76.1 12 70 9.6
2005-04-28 08:23:12 51°20.192 2°58.242 75.3 11.9 70 9.4
2005-04-28 08:24:12 51°20.257 2°58.538 76 11.8 71 9.4
2005-04-28 08:25:13 51°20.322 2°58.839 75.3 11.7 71 9.4
2005-04-28 08:26:13 51°20.387 2°59.135 74.5 11.6 70 9.4
2005-04-28 08:27:12 51°20.45 2°59.426 75 11.7 71 9.2
2005-04-28 08:28:13 51°20.513 2°59.724 76.3 11.5 72 9.1
2005-04-28 08:29:13 51°20.579 3°0.014 75.4 11.6 71 9.1
2005-04-28 08:30:12 51°20.64 3°0.299 75 11.5 70 9.1
2005-04-28 08:31:13 51°20.704 3°0.591 74.5 11.6 70 9
2005-04-28 08:32:13 51°20.769 3°0.882 74.6 11.5 70 9.1
2005-04-28 08:33:13 51°20.83 3°1.171 76.2 11.3 71 8.9
2005-04-28 08:34:13 51°20.891 3°1.456 73.9 11.3 71 9.1
2005-04-28 08:35:13 51°20.955 3°1.747 74.4 11.4 70 9.1
2005-04-28 08:36:13 51°21.016 3°2.037 75.3 11.6 72 9.1
2005-04-28 08:37:13 51°21.079 3°2.322 75.4 11.3 72 9.2
2005-04-28 08:38:14 51°21.142 3°2.613 74.1 11.5 71 9.2
2005-04-28 08:39:13 51°21.204 3°2.896 74.7 11.3 71 9.2
2005-04-28 08:40:13 51°21.265 3°3.183 76.7 11.6 73 9.1
2005-04-28 08:41:13 51°21.328 3°3.475 75.5 11.6 73 9.3
2005-04-28 08:42:12 51°21.389 3°3.757 75.6 11.5 72 9.4
2005-04-28 08:43:13 51°21.453 3°4.048 74.7 11.3 71 9.3
2005-04-28 08:44:13 51°21.51 3°4.332 74.9 11.3 71 9.5
2005-04-28 08:45:13 51°21.572 3°4.62 74.2 11.3 71 9.5
2005-04-28 08:46:13 51°21.63 3°4.905 74.4 11.2 71 9.6
2005-04-28 08:47:13 51°21.685 3°5.193 74.7 11.4 73 9.6
2005-04-28 08:48:13 51°21.739 3°5.48 75.2 11.3 71 9.6
2005-04-28 08:49:12 51°21.795 3°5.763 75.1 11.4 72 9.7
2005-04-28 08:50:13 51°21.855 3°6.058 76 11.6 72 9.7
2005-04-28 08:51:13 51°21.902 3°6.361 79.5 11.7 76 9.9
2005-04-28 08:52:12 51°21.946 3°6.66 79.8 11.7 77 10.1
2005-04-28 08:53:13 51°21.993 3°6.968 79.9 11.8 76 10.1
2005-04-28 08:54:12 51°22.038 3°7.264 79.7 11.7 76 10.3
2005-04-28 08:55:13 51°22.084 3°7.568 82.5 11.6 80 10.4
2005-04-28 08:56:13 51°22.106 3°7.869 85.3 11.6 83 10.4
2005-04-28 08:57:12 51°22.129 3°8.174 84.9 11.6 83 10.4
2005-04-28 08:58:13 51°22.153 3°8.484 85.4 11.7 83 10.5
2005-04-28 08:59:14 51°22.178 3°8.794 85.1 11.5 82 10.7
2005-04-28 09:00:14 51°22.206 3°9.096 82 11.5 79 10.9
2005-04-28 09:01:13 51°22.239 3°9.392 83.4 11.5 81 11.2
2005-04-28 09:02:13 51°22.277 3°9.694 82.3 11.6 79 11.6
2005-04-28 09:03:12 51°22.314 3°9.994 82.3 11.6 79 12
2005-04-28 09:04:13 51°22.344 3°10.302 84.3 11.6 80 13.2
2005-04-28 09:05:13 51°22.379 3°10.611 84.1 11.9 80 16.3
2005-04-28 09:06:12 51°22.414 3°10.918 84 11.7 80 14
2005-04-28 09:07:12 51°22.431 3°11.228 89.8 11.7 86 13.8
2005-04-28 09:08:13 51°22.444 3°11.543 90.5 11.9 85 13.7
2005-04-28 09:09:13 51°22.467 3°11.853 86.3 11.8 81 13.4
2005-04-28 09:10:14 51°22.495 3°12.167 85.6 11.6 81 12.8
2005-04-28 09:11:13 51°22.525 3°12.475 86.1 11.9 81 12.2
2005-04-28 09:12:14 51°22.554 3°12.789 85.7 11.9 82 11.6
2005-04-28 09:13:13 51°22.575 3°13.015 90.3 6.6 86 11.3
2005-04-28 09:14:13 51°22.578 3°13.14 92.9 3.6 87 11.1
2005-04-28 09:15:14 51°22.598 3°13.189 64.7 1.4 27 10.9
2005-04-28 09:16:13 51°22.611 3°13.193 75.4 0.6 1 11
2005-04-28 09:17:13 51°22.62 3°13.186 78.3 0.6 325 10.9
2005-04-28 09:18:13 51°22.626 3°13.172 79.8 0.8 305 10.9
2005-04-28 09:19:13 51°22.632 3°13.151 81.2 0.9 287 10.9
2005-04-28 09:20:13 51°22.636 3°13.127 83.2 1 281 10.9
2005-04-28 09:21:13 51°22.654 3°13.143 59.3 3.2 41 10.9
2005-04-28 09:22:13 51°22.728 3°13.291 59.9 9.3 51 10.5
2005-04-28 09:23:13 51°22.843 3°13.503 56.6 10.8 46 9.8
2005-04-28 09:24:12 51°22.993 3°13.658 41.2 10.7 29 9.5
2005-04-28 09:25:13 51°23.182 3°13.657 3.3 11.8 351 9.1
2005-04-28 09:26:13 51°23.378 3°13.599 1 12 349 10.1
2005-04-28 09:27:13 51°23.568 3°13.523 358 11.9 345 9.3
2005-04-28 09:28:13 51°23.763 3°13.451 358.2 11.9 346 9.7
2005-04-28 09:29:13 51°23.956 3°13.38 359.7 11.9 347 10.1
2005-04-28 09:30:13 51°24.163 3°13.323 5.7 13 354 12.7
2005-04-28 09:31:14 51°24.382 3°13.332 14.5 12.8 2 16.6
2005-04-28 09:32:13 51°24.58 3°13.418 27.7 12.5 19 17
2005-04-28 09:33:13 51°24.731 3°13.625 53.7 11.8 44 15.3
2005-04-28 09:34:14 51°24.854 3°13.875 59.6 11.9 51 14.5
2005-04-28 09:35:13 51°24.967 3°14.138 63.8 12.2 56 12.9
2005-04-28 09:36:12 51°25.061 3°14.422 71.6 12.4 67 12.1
2005-04-28 09:37:13 51°25.143 3°14.724 72.1 12.3 67 11.6
2005-04-28 09:38:13 51°25.221 3°15.029 74.1 12.3 69 11.1
2005-04-28 09:39:13 51°25.294 3°15.336 73.3 12.5 70 10
2005-04-28 09:40:12 51°25.367 3°15.639 72.5 12.3 69 9
2005-04-28 09:41:13 51°25.44 3°15.942 72.5 12.1 68 8.2
2005-04-28 09:42:13 51°25.508 3°16.242 72.5 12 68 7.7
2005-04-28 09:43:13 51°25.57 3°16.541 75.7 11.9 74 7.5
2005-04-28 09:44:13 51°25.662 3°16.824 66.1 11.8 62 7.2
2005-04-28 09:45:13 51°25.743 3°17.078 57 9.2 58 -999
2005-04-28 09:46:14 51°25.786 3°17.247 68.3 6 68 7.4
2005-04-28 09:47:13 51°25.827 3°17.376 64.8 5.5 62 7.3
2005-04-28 09:48:12 51°25.857 3°17.494 74.5 3.1 72 7.4
2005-04-28 09:49:12 51°25.864 3°17.526 70.1 0.8 77 7.5
2005-04-28 09:50:13 51°25.865 3°17.543 77.7 0.5 88 7.5
2005-04-28 09:51:14 51°25.864 3°17.557 79.2 0.5 97 5.6
2005-04-28 09:52:12 51°25.862 3°17.565 79.7 0.3 125 7.6
2005-04-28 09:53:13 51°25.859 3°17.569 81.3 0.3 152 7.6
2005-04-28 09:54:13 51°25.855 3°17.604 91.2 3.3 98 7.7
2005-04-28 09:55:13 51°25.776 3°17.701 160.1 7.7 170 7.7
2005-04-28 09:56:13 51°25.665 3°17.571 244.6 9.7 250 8.1
2005-04-28 09:57:13 51°25.637 3°17.25 262.9 13.3 257 5.7
2005-04-28 09:58:13 51°25.61 3°16.89 271.2 13.8 264 7.6
2005-04-28 09:59:13 51°25.572 3°16.527 271.1 13.8 262 7.5
2005-04-28 10:00:13 51°25.563 3°16.17 265.9 13.5 264 7.3
2005-04-28 10:01:13 51°25.528 3°15.815 272.2 13.5 268 7.3
2005-04-28 10:02:13 51°25.502 3°15.463 263.3 13.6 258 7.6
2005-04-28 10:03:13 51°25.477 3°15.098 274.7 13.7 268 7.8
2005-04-28 10:04:13 51°25.44 3°14.735 265.7 14 261 8.2
2005-04-28 10:05:12 51°25.388 3°14.375 260.6 14.2 255 8.6
2005-04-28 10:06:13 51°25.321 3°14.005 258.4 14.4 253 9.4
2005-04-28 10:07:13 51°25.252 3°13.633 258.3 14.5 254 9.9
2005-04-28 10:08:13 51°25.184 3°13.265 258.6 14.4 254 10.3
2005-04-28 10:09:13 51°25.115 3°12.901 257.5 14.2 252 10.4
2005-04-28 10:10:13 51°25.036 3°12.543 254.7 14.2 250 10.5
2005-04-28 10:11:14 51°24.955 3°12.184 255.5 14.2 250 10.6
2005-04-28 10:12:13 51°24.873 3°11.83 255 14.3 250 10.5
2005-04-28 10:13:13 51°24.8 3°11.469 260.1 14.3 254 10.6
2005-04-28 10:14:13 51°24.769 3°11.098 273.1 14 270 10.3
2005-04-28 10:15:13 51°24.792 3°10.728 282.3 14 275 9.4
2005-04-28 10:16:13 51°24.806 3°10.358 281.1 13.9 273 8.6
2005-04-28 10:17:13 51°24.817 3°9.991 280.9 13.7 273 8.1
2005-04-28 10:18:13 51°24.834 3°9.63 280.5 13.5 273 7.7
2005-04-28 10:19:13 51°24.87 3°9.28 290.8 13.2 282 7.5
2005-04-28 10:20:14 51°24.884 3°8.924 280.1 13.4 273 7.3
2005-04-28 10:21:14 51°24.927 3°8.58 295.4 13.1 286 5.5
2005-04-28 10:22:13 51°24.942 3°8.233 279.6 13.3 272 7.4
2005-04-28 10:23:13 51°24.988 3°7.89 294.2 13.1 287 5.5
2005-04-28 10:24:13 51°25.126 3°7.658 339.6 11.9 331 7
2005-04-28 10:25:14 51°25.317 3°7.564 353 12.1 342 7.7
2005-04-28 10:26:13 51°25.51 3°7.473 357.8 12.2 349 8.2
2005-04-28 10:27:13 51°25.711 3°7.458 15.2 12.1 10 8.7
2005-04-28 10:28:13 51°25.889 3°7.598 37.8 12 35 8.6
2005-04-28 10:29:14 51°26.046 3°7.789 39.6 11.7 36 8.3
2005-04-28 10:30:12 51°26.199 3°7.973 37.7 11.7 35 8.4
2005-04-28 10:31:14 51°26.327 3°8.142 44.7 8 43 9.1
2005-04-28 10:32:13 51°26.39 3°8.215 28.3 3.6 26 9.6
2005-04-28 10:33:12 51°26.421 3°8.249 41.6 1.7 43 9.8
2005-04-28 10:34:13 51°26.426 3°8.271 52.9 0.8 88 9.8
2005-04-28 10:35:13 51°26.421 3°8.288 63.4 0.8 132 9.9
2005-04-28 10:36:13 51°26.409 3°8.301 72.3 0.9 153 9.8
2005-04-28 10:37:14 51°26.394 3°8.309 80.9 1.1 167 9.7
2005-04-28 10:38:13 51°26.381 3°8.335 75.3 2.1 95 9.7
2005-04-28 10:39:14 51°26.436 3°8.353 357.9 4.7 346 9.9
2005-04-28 10:40:13 51°26.572 3°8.207 326 11.6 321 10
2005-04-28 10:41:14 51°26.653 3°7.883 301.6 13.3 291 9.7
2005-04-28 10:42:13 51°26.732 3°7.55 301.2 13.6 291 9.9
2005-04-28 10:43:14 51°26.83 3°7.224 306.7 13.4 296 10.6
2005-04-28 10:44:14 51°26.928 3°6.903 306.2 13.4 296 11.2
2005-04-28 10:45:13 51°27.033 3°6.593 309.2 13.4 298 11.5
2005-04-28 10:46:14 51°27.141 3°6.278 309.4 13.4 299 12.1
2005-04-28 10:47:14 51°27.251 3°5.967 312 13.4 300 12.4
2005-04-28 10:48:14 51°27.369 3°5.664 312.1 13.4 302 13.1
2005-04-28 10:49:13 51°27.487 3°5.363 312.2 13.5 301 13.8
2005-04-28 10:50:14 51°27.607 3°5.056 312.5 13.5 302 13.4
2005-04-28 10:51:14 51°27.727 3°4.752 313 13.5 303 12.5
2005-04-28 10:52:13 51°27.846 3°4.444 312.2 13.7 302 14.7
2005-04-28 10:53:14 51°27.967 3°4.131 311.9 13.7 302 17
2005-04-28 10:54:14 51°28.091 3°3.824 314.1 13.7 303 19
2005-04-28 10:55:14 51°28.198 3°3.554 312 10.4 300 20.9
2005-04-28 10:56:14 51°28.211 3°3.41 269.6 3.1 256 21.6
2005-04-28 10:57:14 51°28.203 3°3.41 269.5 0.6 186 21.6
2005-04-28 10:58:13 51°28.191 3°3.402 279.4 0.8 204 21.4
2005-04-28 10:59:13 51°28.178 3°3.388 291.1 1.1 218 21.4
2005-04-28 11:00:14 51°28.164 3°3.367 298.3 1.2 227 21.5
2005-04-28 11:01:13 51°28.151 3°3.342 301 1.2 232 21.4
2005-04-28 11:02:13 51°28.138 3°3.314 300.4 1.3 236 21.4
2005-04-28 11:03:13 51°28.127 3°3.285 298 1.3 241 21.5
2005-04-28 11:04:13 51°28.119 3°3.227 283.9 3.9 266 21.7
2005-04-28 11:05:13 51°28.132 3°2.969 286.7 13.5 274 22.2
2005-04-28 11:06:13 51°28.114 3°2.582 268.7 14.9 261 22.9
2005-04-28 11:07:14 51°28.074 3°2.184 266.5 15 260 23.1
2005-04-28 11:08:13 51°28.029 3°1.791 265.4 15.1 259 23.1
2005-04-28 11:09:14 51°27.976 3°1.392 264.3 15.2 258 22.9
2005-04-28 11:10:13 51°27.927 3°0.999 264.6 15.1 258 22.6
2005-04-28 11:11:14 51°27.869 3°0.6 261 15.4 255 21.7
2005-04-28 11:12:13 51°27.804 3°0.21 262 15.2 255 20
2005-04-28 11:13:13 51°27.738 2°59.818 262.2 15.3 255 18.6
2005-04-28 11:14:13 51°27.673 2°59.425 262.3 15.3 255 18.4
2005-04-28 11:15:13 51°27.61 2°59.033 263.4 15.1 256 17.4
2005-04-28 11:16:14 51°27.55 2°58.638 263.4 15.2 257 16.5
2005-04-28 11:17:14 51°27.49 2°58.245 262.7 15.2 256 19
2005-04-28 11:18:14 51°27.431 2°57.851 263.7 15.2 257 21.2
2005-04-28 11:19:14 51°27.372 2°57.455 263.1 15.3 256 24.3
2005-04-28 11:20:13 51°27.31 2°57.061 262.9 15.4 256 25.2
2005-04-28 11:21:13 51°27.249 2°56.661 263.3 15.5 257 20.4
2005-04-28 11:22:14 51°27.187 2°56.257 263 15.5 256 26.3
2005-04-28 11:23:13 51°27.128 2°55.86 262.7 15.4 257 28.2
2005-04-28 11:24:12 51°27.071 2°55.468 263.4 15.4 257 28.1
2005-04-28 11:25:14 51°27.012 2°55.06 263.3 15.3 257 26.5
2005-04-28 11:26:13 51°26.958 2°54.665 263.4 15.2 258 27.2
2005-04-28 11:27:14 51°26.901 2°54.265 263.1 15.2 257 22.9
2005-04-28 11:28:13 51°26.844 2°53.876 262.8 -999 -999 25.8
2005-04-28 11:29:13 51°26.788 2°53.48 263.3 15 258 27.1
2005-04-28 11:30:13 51°26.735 2°53.091 263.1 15 258 28.7
2005-04-28 11:31:14 51°26.685 2°52.7 263.3 14.9 259 27.8
2005-04-28 11:32:14 51°26.635 2°52.313 263.5 14.8 259 26.1
2005-04-28 11:33:14 51°26.587 2°51.925 263.5 14.9 259 26.7
2005-04-28 11:34:13 51°26.538 2°51.54 262 14.9 257 25.3
2005-04-28 11:35:13 51°26.482 2°51.155 260.5 14.8 257 26.5
2005-04-28 11:36:13 51°26.426 2°50.771 260.9 14.8 256 23.1
2005-04-28 11:37:13 51°26.365 2°50.385 258.7 14.9 254 23.3
2005-04-28 11:38:13 51°26.296 2°50 258.6 15.1 254 22.8
2005-04-28 11:39:13 51°26.227 2°49.614 258.3 15.1 254 22.7
2005-04-28 11:40:14 51°26.157 2°49.226 258.8 15 254 23.1
2005-04-28 11:41:14 51°26.091 2°48.856 258.4 12.5 254 23
2005-04-28 11:42:13 51°26.04 2°48.654 251 6 251 23.7
2005-04-28 11:43:14 51°26.027 2°48.549 262 2.7 257 23.4
2005-04-28 11:44:14 51°26.024 2°48.528 271.4 0.6 248 -999
2005-04-28 11:45:14 51°26.018 2°48.51 283.2 0.8 242 23.1
2005-04-28 11:46:13 51°26.011 2°48.486 292.3 1.1 251 23.4
2005-04-28 11:47:14 51°26.006 2°48.458 300.1 1.2 256 23.4
2005-04-28 11:48:13 51°26.002 2°48.427 305.8 1.2 258 23.7
2005-04-28 11:49:14 51°25.999 2°48.394 305.8 1.4 268 23.1
2005-04-28 11:50:13 51°26.006 2°48.338 313.6 2.6 284 22.7
2005-04-28 11:51:14 51°26.054 2°48.212 318.4 7.4 304 23.3
2005-04-28 11:52:13 51°26.113 2°47.92 284.1 13.8 274 22.2
2005-04-28 11:53:14 51°26.035 2°47.562 246.6 14.5 242 22
2005-04-28 11:54:14 51°25.909 2°47.23 241.6 14.6 238 22.8
2005-04-28 11:55:14 51°25.781 2°46.9 242.6 14.6 239 23.5
2005-04-28 11:56:14 51°25.654 2°46.567 242.5 14.6 239 23.8
2005-04-28 11:57:14 51°25.528 2°46.233 242.8 14.7 239 22.3
2005-04-28 11:58:14 51°25.406 2°45.897 244 14.6 241 25.1
2005-04-28 11:59:14 51°25.276 2°45.569 238.8 14.7 236 25.7
2005-04-28 12:00:14 51°25.144 2°45.241 239.6 14.6 237 24
2005-04-28 12:01:14 51°25.014 2°44.911 240.2 14.7 238 25.6
2005-04-28 12:02:12 51°24.888 2°44.59 239.6 14.6 237 26.1
2005-04-28 12:03:14 51°24.757 2°44.251 240.2 14.6 239 25.8
2005-04-28 12:04:14 51°24.631 2°43.919 239.6 14.7 238 25
2005-04-28 12:05:13 51°24.507 2°43.592 240.2 14.6 239 23.8
2005-04-28 12:06:14 51°24.378 2°43.256 240.6 14.5 239 24.8
2005-04-28 12:07:14 51°24.252 2°42.925 240.1 14.5 239 23.5
2005-04-28 12:08:14 51°24.126 2°42.594 240.5 14.5 239 25.2
2005-04-28 12:09:13 51°24.001 2°42.27 239.1 14.4 236 26.2
2005-04-28 12:10:14 51°23.87 2°41.946 241.7 14.3 238 27.1
2005-04-28 12:11:14 51°23.743 2°41.619 239.8 14.5 238 27.6
2005-04-28 12:12:14 51°23.616 2°41.291 240.2 14.4 237 29.1
2005-04-28 12:13:14 51°23.488 2°40.964 240.4 14.5 238 28.4
2005-04-28 12:14:14 51°23.361 2°40.638 240.3 14.4 238 29.8
2005-04-28 12:15:14 51°23.234 2°40.312 240.2 14.4 238 29.5
2005-04-28 12:16:14 51°23.112 2°39.983 242.7 14.4 240 30.2
2005-04-28 12:17:14 51°22.991 2°39.653 242.8 14.4 240 30.2
2005-04-28 12:18:14 51°22.871 2°39.323 242.3 14.3 239 30.1
2005-04-28 12:19:14 51°22.747 2°39.001 242.4 14.1 238 30.5
2005-04-28 12:20:13 51°22.626 2°38.684 242.8 14.1 239 30.5
2005-04-28 12:21:14 51°22.501 2°38.361 242.1 14.1 238 29.4
2005-04-28 12:22:14 51°22.377 2°38.043 242.7 14 239 30.1
2005-04-28 12:23:14 51°22.256 2°37.724 243.5 14 240 30.5
2005-04-28 12:24:14 51°22.143 2°37.399 245.7 14 242 30.5
2005-04-28 12:25:12 51°22.033 2°37.082 245.4 13.9 241 30.8
2005-04-28 12:26:14 51°21.917 2°36.75 245.3 14 241 32.1
2005-04-28 12:27:14 51°21.805 2°36.424 245.8 14 242 32.4
2005-04-28 12:28:13 51°21.693 2°36.102 244.9 13.9 241 32.4
2005-04-28 12:29:14 51°21.585 2°35.771 247.7 14 244 31.6
2005-04-28 12:30:13 51°21.482 2°35.448 247.4 13.8 243 31.6
2005-04-28 12:31:14 51°21.375 2°35.116 247.5 13.9 243 34.8
2005-04-28 12:32:14 51°21.27 2°34.789 247.5 13.9 242 34
2005-04-28 12:33:14 51°21.162 2°34.461 246.7 13.9 243 31.2
2005-04-28 12:34:14 51°21.061 2°34.128 247.6 14 244 31.5
2005-04-28 12:35:14 51°20.958 2°33.793 247.3 14 244 31.4
2005-04-28 12:36:14 51°20.859 2°33.455 249 14.1 248 31.5
2005-04-28 12:37:14 51°20.781 2°33.102 253.3 14.1 251 31.2
2005-04-28 12:38:14 51°20.704 2°32.748 253.6 14.1 251 30.8
2005-04-28 12:39:14 51°20.626 2°32.394 253.7 14.1 251 31.2
2005-04-28 12:40:14 51°20.548 2°32.042 252.8 14.1 250 31
2005-04-28 12:41:14 51°20.471 2°31.691 252.8 14 250 26
2005-04-28 12:42:14 51°20.394 2°31.344 253.7 13.8 250 19.1
2005-04-28 12:43:14 51°20.304 2°31.01 248.3 13.7 246 17.5
2005-04-28 12:44:14 51°20.207 2°30.685 248.2 13.5 245 15.4
2005-04-28 12:45:14 51°20.121 2°30.401 247.9 -999 -999 13.6
2005-04-28 12:46:14 51°20.071 2°30.243 250.2 5.4 244 14
2005-04-28 12:47:14 51°20.043 2°30.137 253.1 3.8 248 16
2005-04-28 12:48:14 51°20.026 2°30.082 244 1.1 231 13.1
2005-04-28 12:49:14 51°20.024 2°30.077 250.4 0.2 263 13.6
2005-04-28 12:50:14 51°20.025 2°30.073 253.5 0.2 310 13.5
2005-04-28 12:51:14 51°20.028 2°30.073 250 0.2 19 13.3
2005-04-28 12:52:14 51°20.03 2°30.077 246.4 0.3 53 13.2
2005-04-28 12:53:14 51°20.026 2°30.073 232.8 1.5 216 13.4
2005-04-28 12:54:14 51°19.977 2°30.089 162.6 3.6 160 14.3
2005-04-28 12:55:14 51°19.856 2°30.194 161.5 11.2 158 14.6
2005-04-28 12:56:14 51°19.689 2°30.415 136.2 13.7 132 16.8
2005-04-28 12:57:14 51°19.543 2°30.696 132 13.7 130 22
2005-04-28 12:58:14 51°19.401 2°30.97 132.4 13.3 130 29.8
2005-04-28 12:59:14 51°19.286 2°31.269 123.4 13.2 120 31.3
2005-04-28 13:00:14 51°19.176 2°31.572 124.1 13.2 121 31.4
2005-04-28 13:01:14 51°19.064 2°31.874 124.1 13.3 120 31.7
2005-04-28 13:02:14 51°18.951 2°32.18 124.7 13.3 121 31.5
2005-04-28 13:03:14 51°18.85 2°32.498 118.6 13.5 114 31.1
2005-04-28 13:04:14 51°18.76 2°32.829 118.6 13.6 113 30
2005-04-28 13:05:14 51°18.671 2°33.164 118.7 13.7 113 26.6
2005-04-28 13:06:14 51°18.58 2°33.499 118.7 13.7 114 20.1
2005-04-28 13:07:14 51°18.487 2°33.837 119.7 13.8 115 19.2
2005-04-28 13:08:14 51°18.395 2°34.165 119.4 13.5 114 24.7
2005-04-28 13:09:14 51°18.311 2°34.499 116.8 13.5 111 26.6
2005-04-28 13:10:14 51°18.232 2°34.84 115.8 13.8 110 27.8
2005-04-28 13:11:14 51°18.151 2°35.184 116.4 14 111 27.2
2005-04-28 13:12:14 51°18.052 2°35.519 124.1 14 119 22.5
2005-04-28 13:13:14 51°17.924 2°35.829 131.9 13.9 126 15.8
2005-04-28 13:14:14 51°17.76 2°36.088 146.6 14 141 15.2
2005-04-28 13:15:14 51°17.571 2°36.29 158.7 13.5 153 19
2005-04-28 13:16:14 51°17.366 2°36.415 166.2 13 160 23.3
2005-04-28 13:17:14 51°17.164 2°36.531 164.9 12.8 160 28
2005-04-28 13:18:14 51°16.963 2°36.649 165.4 12.9 160 28.6
2005-04-28 13:19:14 51°16.784 2°36.746 171.5 9.7 162 28.8
2005-04-28 13:20:14 51°16.695 2°36.763 186 4.2 176 28
2005-04-28 13:21:14 51°16.657 2°36.784 195.5 0.9 109 28.5
2005-04-28 13:22:14 51°16.664 2°36.802 218.4 0.8 52 28.6
2005-04-28 13:23:14 51°16.677 2°36.819 244.9 1.2 36 -999
2005-04-28 13:24:14 51°16.695 2°36.836 268.4 1.3 30 28.2
2005-04-28 13:25:14 51°16.714 2°36.855 279.3 1.3 34 28.3
2005-04-28 13:26:14 51°16.734 2°36.873 288.8 1.4 31 28.7
2005-04-28 13:27:14 51°16.755 2°36.893 294.4 1.5 30 28.7
2005-04-28 13:28:14 51°16.776 2°36.912 294.6 1.5 28 28.8
2005-04-28 13:29:14 51°16.797 2°36.931 293.2 1.5 27 28.8
2005-04-28 13:30:14 51°16.82 2°36.95 289.4 1.5 28 29.1
2005-04-28 13:31:14 51°16.842 2°36.97 287.3 1.5 29 29.5
2005-04-28 13:32:14 51°16.864 2°36.986 284.6 1.4 15 29.9
2005-04-28 13:33:14 51°16.865 2°36.944 230.6 2.5 236 29.5
2005-04-28 13:34:14 51°16.732 2°36.911 188.8 11.4 181 28.5
2005-04-28 13:35:14 51°16.535 2°36.994 163.1 12.8 154 28.5
2005-04-28 13:36:14 51°16.343 2°37.152 161 13 153 27.9
2005-04-28 13:37:14 51°16.145 2°37.279 167.7 12.9 159 20.5
2005-04-28 13:38:14 51°15.942 2°37.404 168 13.1 159 13.2
2005-04-28 13:39:14 51°15.737 2°37.531 168.5 13.3 159 12.9
2005-04-28 13:40:14 51°15.537 2°37.685 164 13.4 153 12.9
2005-04-28 13:41:14 51°15.336 2°37.845 163.6 13.6 153 13.2
2005-04-28 13:42:14 51°15.138 2°38.016 159.3 13.7 149 14
2005-04-28 13:43:14 51°14.947 2°38.212 154 13.6 145 17.3
2005-04-28 13:44:14 51°14.765 2°38.423 153.1 13.4 144 18.9
2005-04-28 13:45:14 51°14.586 2°38.635 152.9 13.5 142 19.1
2005-04-28 13:46:14 51°14.399 2°38.814 162.9 13 153 20.2
2005-04-28 13:47:14 51°14.197 2°38.923 178.9 12.7 167 15.6
2005-04-28 13:48:14 51°13.994 2°38.892 205.3 12.1 199 15
2005-04-28 13:49:14 51°13.806 2°38.778 206.7 12.2 199 16.1
2005-04-28 13:50:14 51°13.617 2°38.659 210.9 12.2 204 16.8
2005-04-28 13:51:14 51°13.432 2°38.527 210.4 12.2 204 16.9
2005-04-28 13:52:14 51°13.246 2°38.395 210.1 12.2 204 16.7
2005-04-28 13:53:14 51°13.061 2°38.265 209.2 12.2 203 16.5
2005-04-28 13:54:14 51°12.879 2°38.129 213.7 12 207 16
2005-04-28 13:55:14 51°12.705 2°37.973 214.7 12 209 15.5
2005-04-28 13:56:14 51°12.529 2°37.819 214.8 12 209 15.3
2005-04-28 13:57:14 51°12.355 2°37.67 214.1 12 208 15
2005-04-28 13:58:13 51°12.181 2°37.521 214.4 12 208 14.8
2005-04-28 13:59:13 51°12.005 2°37.37 213.9 12.1 209 15
2005-04-28 14:00:14 51°11.827 2°37.217 213.8 12 208 15.2
2005-04-28 14:01:14 51°11.651 2°37.064 214 12 208 15.3
2005-04-28 14:02:13 51°11.477 2°36.913 213.8 12 208 15.5
2005-04-28 14:03:13 51°11.302 2°36.76 214.6 12 209 15.2
2005-04-28 14:04:13 51°11.127 2°36.61 214.1 11.9 208 14.9
2005-04-28 14:05:14 51°10.951 2°36.459 214.6 11.9 209 14.7
2005-04-28 14:06:14 51°10.777 2°36.308 214 11.9 208 14.2
2005-04-28 14:07:14 51°10.602 2°36.157 214.1 11.8 208 13.5
2005-04-28 14:08:14 51°10.431 2°36.01 214.4 11.7 208 13.6
2005-04-28 14:09:14 51°10.252 2°35.886 205.4 11.8 198 13
2005-04-28 14:10:14 51°10.056 2°35.868 177.9 12.3 168 18.4
2005-04-28 14:11:14 51°9.889 2°36.088 138.7 14.1 122 20.6
2005-04-28 14:12:14 51°9.843 2°36.465 96.6 15.2 88 20.6
2005-04-28 14:13:14 51°9.876 2°36.864 88.2 15.2 82 20.2
2005-04-28 14:14:13 51°9.95 2°37.247 73.1 15.4 69 20
2005-04-28 14:15:14 51°10.043 2°37.628 73.3 15.3 69 19.9
2005-04-28 14:16:14 51°10.131 2°38.008 75.3 15.4 70 18.9
2005-04-28 14:17:14 51°10.219 2°38.391 74.1 15.4 70 18.5
2005-04-28 14:18:14 51°10.308 2°38.774 74.5 15.4 70 18.9
2005-04-28 14:19:14 51°10.395 2°39.163 75.4 15.4 70 17.8
2005-04-28 14:20:14 51°10.482 2°39.547 74.9 15.5 70 17.5
2005-04-28 14:21:13 51°10.567 2°39.932 75.7 15.5 71 17
2005-04-28 14:22:14 51°10.658 2°40.322 71.6 15.6 67 16.3
2005-04-28 14:23:14 51°10.759 2°40.701 73.5 15.5 69 15.7
2005-04-28 14:24:14 51°10.853 2°41.083 72.8 15.6 69 15.3
2005-04-28 14:25:14 51°10.944 2°41.467 73.2 15.5 69 15
2005-04-28 14:26:12 51°11.026 2°41.811 74.7 12.6 70 15.1
2005-04-28 14:27:14 51°11.088 2°42.019 55.9 6.2 55 15.1
2005-04-28 14:28:14 51°11.111 2°42.07 57.3 0.8 53 -999
2005-04-28 14:29:14 51°11.121 2°42.094 55.1 1.3 57 15.1
2005-04-28 14:30:14 51°11.135 2°42.126 55.6 1.5 53 15
2005-04-28 14:31:14 51°11.152 2°42.162 54.1 1.8 53 15
2005-04-28 14:32:14 51°11.171 2°42.202 56.8 1.9 56 15
2005-04-28 14:33:13 51°11.188 2°42.239 61.6 1.7 54 14.9
2005-04-28 14:34:14 51°11.205 2°42.271 60.4 1.5 49 14.9
2005-04-28 14:35:14 51°11.219 2°42.299 52.9 1.3 53 14.9
2005-04-28 14:36:13 51°11.23 2°42.325 45.1 1.1 58 14.8
2005-04-28 14:37:14 51°11.242 2°42.355 41.7 1.4 57 14.8
2005-04-28 14:38:14 51°11.252 2°42.384 39.1 0.7 83 14.8
2005-04-28 14:39:14 51°11.254 2°42.408 36.1 1.1 76 14.8
2005-04-28 14:40:14 51°11.256 2°42.431 36.3 1 78 -999
2005-04-28 14:41:13 51°11.264 2°42.462 35.6 1.3 67 14.8
2005-04-28 14:42:13 51°11.271 2°42.49 37.9 0.9 82 14.7
2005-04-28 14:43:14 51°11.276 2°42.517 36.4 1.2 69 14.8
2005-04-28 14:44:14 51°11.286 2°42.547 39.6 1.4 58 14.7
2005-04-28 14:45:14 51°11.301 2°42.581 42.3 1.7 54 14.7
2005-04-28 14:46:14 51°11.319 2°42.62 48.3 1.8 53 14.6
2005-04-28 14:47:14 51°11.338 2°42.66 54.8 1.9 53 14.5
2005-04-28 14:48:14 51°11.357 2°42.703 66.8 2 54 14.5
2005-04-28 14:49:13 51°11.377 2°42.746 77.9 2 54 14.5
2005-04-28 14:50:14 51°11.398 2°42.79 84.9 2.1 53 14.4
2005-04-28 14:51:14 51°11.457 2°42.898 33.7 7.6 38 14.2
2005-04-28 14:52:14 51°11.55 2°42.827 286.4 6.2 289 13.6
2005-04-28 14:53:13 51°11.495 2°42.671 231.4 7.8 226 13.9
2005-04-28 14:54:14 51°11.387 2°42.514 228.3 9.1 222 14.3
2005-04-28 14:55:14 51°11.274 2°42.36 227.1 8.6 220 14.5
2005-04-28 14:56:14 51°11.203 2°42.237 237 5.5 231 14.7
2005-04-28 14:57:14 51°11.153 2°42.155 225.9 3.1 212 14.9
2005-04-28 14:58:14 51°11.127 2°42.146 229.9 0.6 168 15.1
2005-04-28 14:59:14 51°11.131 2°42.156 252.5 0.7 40 15
2005-04-28 15:00:14 51°11.14 2°42.156 250.7 0.4 338 14.9
2005-04-28 15:01:14 51°11.141 2°42.15 239.1 0.3 232 14.9
2005-04-28 15:02:14 51°11.082 2°42.164 176.6 6.2 156 15.1
2005-04-28 15:03:14 51°11.025 2°42.395 105.4 12.8 94 15.3
2005-04-28 15:04:14 51°11.055 2°42.781 86.3 15 80 15.3
2005-04-28 15:05:14 51°11.106 2°43.172 82.8 15.2 77 15.2
2005-04-28 15:06:14 51°11.168 2°43.562 81.8 15.2 76 15.1
2005-04-28 15:07:14 51°11.231 2°43.951 81.3 15.2 75 15.1
2005-04-28 15:08:14 51°11.292 2°44.34 82.2 15.1 76 15.1
2005-04-28 15:09:14 51°11.353 2°44.733 81.6 15.2 74 15
2005-04-28 15:10:14 51°11.431 2°45.115 78 15.3 72 14.9
2005-04-28 15:11:14 51°11.51 2°45.5 78.5 15.3 72 14.9
2005-04-28 15:12:14 51°11.59 2°45.884 77.9 15.3 72 14.8
2005-04-28 15:13:14 51°11.68 2°46.267 72.3 15.4 67 14.9
2005-04-28 15:14:14 51°11.785 2°46.64 71 15.4 66 14.8
2005-04-28 15:15:14 51°11.895 2°47.007 69.1 15.4 63 14.7
2005-04-28 15:16:14 51°12.014 2°47.367 67.6 15.4 62 14.8
2005-04-28 15:17:14 51°12.131 2°47.729 68.1 15.4 63 14.7
2005-04-28 15:18:14 51°12.251 2°48.092 67.7 15.4 62 14.7
2005-04-28 15:19:14 51°12.369 2°48.455 67.2 15.3 62 14.5
2005-04-28 15:20:14 51°12.494 2°48.811 65.6 15.5 61 14.3
2005-04-28 15:21:14 51°12.619 2°49.169 65.7 15.6 60 14.3
2005-04-28 15:22:14 51°12.744 2°49.528 66.7 15.5 61 14
2005-04-28 15:23:14 51°12.873 2°49.883 63.8 15.5 59 14
2005-04-28 15:24:14 51°13.005 2°50.236 64.4 15.5 59 13.8
2005-04-28 15:25:14 51°13.135 2°50.59 64.5 15.4 59 13.8
2005-04-28 15:26:14 51°13.267 2°50.942 63.8 15.5 59 13.5
2005-04-28 15:27:14 51°13.4 2°51.292 63.9 15.4 59 13.4
2005-04-28 15:28:14 51°13.53 2°51.643 64.5 15.4 59 13.3
2005-04-28 15:29:14 51°13.662 2°51.994 64.1 15.5 59 13.1
2005-04-28 15:30:14 51°13.795 2°52.345 64.3 15.4 59 13.1
2005-04-28 15:31:14 51°13.926 2°52.695 64.4 15.5 59 13
2005-04-28 15:32:14 51°14.061 2°53.048 64.9 15.4 59 12.6
2005-04-28 15:33:14 51°14.189 2°53.393 64.4 15.3 59 12.3
2005-04-28 15:34:14 51°14.322 2°53.743 65.1 15.5 58 12.1
2005-04-28 15:35:14 51°14.416 2°54.097 76.5 14.1 71 12.2
2005-04-28 15:36:14 51°14.45 2°54.456 93.9 13.7 87 12.7
2005-04-28 15:37:13 51°14.431 2°54.79 110.4 12.2 102 12.9
2005-04-28 15:38:14 51°14.355 2°55.07 130.6 11.1 126 12.7
2005-04-28 15:39:14 51°14.253 2°55.278 132 9.4 128 13
2005-04-28 15:40:14 51°14.149 2°55.415 153.1 7.2 148 12.9
2005-04-28 15:41:14 51°14.036 2°55.498 159.2 7.6 159 12.3
2005-04-28 15:42:14 51°13.915 2°55.583 160.4 8 157 12.2
2005-04-28 15:43:14 51°13.792 2°55.668 158.3 8 155 12.2
2005-04-28 15:44:13 51°13.708 2°55.778 135 6 131 14.1
2005-04-28 15:45:14 51°13.658 2°55.887 128.4 4.6 124 11.5
2005-04-28 15:46:14 51°13.624 2°55.988 120.2 4.1 115 11.5
2005-04-28 15:47:14 51°13.606 2°56.076 111.6 3.1 106 10
2005-04-28 15:48:14 51°13.599 2°56.105 122.1 0.2 104 9.3